< < Back
Terminal Aerodrome Forecast


Current Version              Previous Versions:   1  2  3  4  5  6  7  8  9  

Terminal Aerodrome Forecast

078
FTUS42 KCHS 312332
TAFCHS
TAF
KCHS 312332Z 0100/0124 21008KT P6SM SKC
     FM010700 26006KT P6SM BKN050
     FM011400 04010KT P6SM BKN050
     FM012000 12008KT P6SM SCT060=



Latest METAR

154
SAUS80 KWBC 010100 RRJ
MTRCHS
METAR KCHS 010056Z 22011KT 10SM FEW070 18/14 A2991 RMK AO2 SLP128
T01830144


USA.gov is the U.S. government's official web portal to all federal, state and local government web resources and services.